sensor_id;sensor_type;location;lat;lon;timestamp;P1;durP1;ratioP1;P2;durP2;ratioP2
31126;SDS011;17775;57.948;12.514;2023-06-22T00:01:18;14.82;;;6.07;;
31126;SDS011;17775;57.948;12.514;2023-06-22T00:03:44;11.68;;;5.93;;
31126;SDS011;17775;57.948;12.514;2023-06-22T00:06:11;14.38;;;6.18;;
31126;SDS011;17775;57.948;12.514;2023-06-22T00:08:37;13.52;;;5.78;;
31126;SDS011;17775;57.948;12.514;2023-06-22T00:11:04;11.52;;;5.70;;
31126;SDS011;17775;57.948;12.514;2023-06-22T00:13:31;10.10;;;6.00;;
31126;SDS011;17775;57.948;12.514;2023-06-22T00:15:57;15.25;;;7.05;;
31126;SDS011;17775;57.948;12.514;2023-06-22T00:18:23;10.75;;;5.68;;
31126;SDS011;17775;57.948;12.514;2023-06-22T00:20:55;12.40;;;6.80;;
31126;SDS011;17775;57.948;12.514;2023-06-22T00:23:23;9.73;;;6.00;;
31126;SDS011;17775;57.948;12.514;2023-06-22T00:25:50;12.00;;;6.60;;
31126;SDS011;17775;57.948;12.514;2023-06-22T00:28:17;11.25;;;6.10;;
31126;SDS011;17775;57.948;12.514;2023-06-22T00:30:43;14.20;;;6.18;;
31126;SDS011;17775;57.948;12.514;2023-06-22T00:33:10;15.38;;;7.15;;
31126;SDS011;17775;57.948;12.514;2023-06-22T00:35:36;16.25;;;7.20;;
31126;SDS011;17775;57.948;12.514;2023-06-22T00:38:03;13.88;;;7.50;;
31126;SDS011;17775;57.948;12.514;2023-06-22T00:40:31;14.20;;;5.90;;
31126;SDS011;17775;57.948;12.514;2023-06-22T00:42:58;11.45;;;6.45;;
31126;SDS011;17775;57.948;12.514;2023-06-22T00:45:25;13.57;;;7.78;;
31126;SDS011;17775;57.948;12.514;2023-06-22T00:47:52;17.40;;;7.43;;
31126;SDS011;17775;57.948;12.514;2023-06-22T00:50:22;11.48;;;6.05;;
31126;SDS011;17775;57.948;12.514;2023-06-22T00:52:53;14.43;;;6.85;;
31126;SDS011;17775;57.948;12.514;2023-06-22T00:55:20;16.45;;;7.93;;
31126;SDS011;17775;57.948;12.514;2023-06-22T00:57:47;17.45;;;8.52;;
31126;SDS011;17775;57.948;12.514;2023-06-22T01:00:16;16.08;;;7.00;;
31126;SDS011;17775;57.948;12.514;2023-06-22T01:02:46;14.93;;;7.53;;
31126;SDS011;17775;57.948;12.514;2023-06-22T01:05:13;15.55;;;6.75;;
31126;SDS011;17775;57.948;12.514;2023-06-22T01:10:30;14.00;;;6.80;;
31126;SDS011;17775;57.948;12.514;2023-06-22T01:13:02;18.13;;;7.63;;
31126;SDS011;17775;57.948;12.514;2023-06-22T01:15:33;16.25;;;7.10;;
31126;SDS011;17775;57.948;12.514;2023-06-22T01:18:02;16.98;;;6.75;;
31126;SDS011;17775;57.948;12.514;2023-06-22T01:20:30;18.90;;;7.38;;
31126;SDS011;17775;57.948;12.514;2023-06-22T01:25:38;21.08;;;6.53;;
31126;SDS011;17775;57.948;12.514;2023-06-22T01:30:54;13.48;;;6.25;;
31126;SDS011;17775;57.948;12.514;2023-06-22T01:33:34;19.80;;;6.75;;
31126;SDS011;17775;57.948;12.514;2023-06-22T01:36:02;13.05;;;6.50;;
31126;SDS011;17775;57.948;12.514;2023-06-22T01:38:29;14.05;;;6.70;;
31126;SDS011;17775;57.948;12.514;2023-06-22T01:40:56;11.75;;;6.80;;
31126;SDS011;17775;57.948;12.514;2023-06-22T01:43:24;17.48;;;7.10;;
31126;SDS011;17775;57.948;12.514;2023-06-22T01:45:51;11.48;;;6.35;;
31126;SDS011;17775;57.948;12.514;2023-06-22T01:48:18;16.52;;;6.47;;
31126;SDS011;17775;57.948;12.514;2023-06-22T01:50:45;13.18;;;6.03;;
31126;SDS011;17775;57.948;12.514;2023-06-22T01:53:12;19.15;;;7.53;;
31126;SDS011;17775;57.948;12.514;2023-06-22T01:55:38;14.75;;;7.35;;
31126;SDS011;17775;57.948;12.514;2023-06-22T01:58:05;15.98;;;6.22;;
31126;SDS011;17775;57.948;12.514;2023-06-22T02:00:32;14.27;;;6.40;;
31126;SDS011;17775;57.948;12.514;2023-06-22T02:03:08;11.50;;;6.38;;
31126;SDS011;17775;57.948;12.514;2023-06-22T02:05:42;14.18;;;5.53;;
31126;SDS011;17775;57.948;12.514;2023-06-22T02:08:32;13.00;;;5.60;;
31126;SDS011;17775;57.948;12.514;2023-06-22T02:10:56;19.10;;;5.63;;
31126;SDS011;17775;57.948;12.514;2023-06-22T02:13:24;15.88;;;6.55;;
31126;SDS011;17775;57.948;12.514;2023-06-22T02:15:50;13.68;;;5.57;;
31126;SDS011;17775;57.948;12.514;2023-06-22T02:18:17;14.00;;;5.75;;
31126;SDS011;17775;57.948;12.514;2023-06-22T02:20:44;14.75;;;5.80;;
31126;SDS011;17775;57.948;12.514;2023-06-22T02:23:12;16.10;;;6.63;;
31126;SDS011;17775;57.948;12.514;2023-06-22T02:25:39;13.88;;;6.07;;
31126;SDS011;17775;57.948;12.514;2023-06-22T02:28:05;11.90;;;5.20;;
31126;SDS011;17775;57.948;12.514;2023-06-22T02:30:32;12.32;;;6.32;;
31126;SDS011;17775;57.948;12.514;2023-06-22T02:32:58;18.40;;;5.90;;
31126;SDS011;17775;57.948;12.514;2023-06-22T02:35:26;12.05;;;5.75;;
31126;SDS011;17775;57.948;12.514;2023-06-22T02:37:53;11.43;;;5.80;;
31126;SDS011;17775;57.948;12.514;2023-06-22T02:40:20;11.55;;;5.97;;
31126;SDS011;17775;57.948;12.514;2023-06-22T02:42:47;11.60;;;5.60;;
31126;SDS011;17775;57.948;12.514;2023-06-22T02:45:13;14.65;;;6.45;;
31126;SDS011;17775;57.948;12.514;2023-06-22T02:47:40;12.63;;;6.25;;
31126;SDS011;17775;57.948;12.514;2023-06-22T02:50:06;15.10;;;6.20;;
31126;SDS011;17775;57.948;12.514;2023-06-22T02:52:33;13.00;;;5.88;;
31126;SDS011;17775;57.948;12.514;2023-06-22T02:55:00;15.50;;;5.53;;
31126;SDS011;17775;57.948;12.514;2023-06-22T02:57:26;17.17;;;6.75;;
31126;SDS011;17775;57.948;12.514;2023-06-22T02:59:53;21.75;;;6.72;;
31126;SDS011;17775;57.948;12.514;2023-06-22T03:02:21;12.52;;;6.15;;
31126;SDS011;17775;57.948;12.514;2023-06-22T03:04:48;15.82;;;5.78;;
31126;SDS011;17775;57.948;12.514;2023-06-22T03:07:15;13.77;;;5.43;;
31126;SDS011;17775;57.948;12.514;2023-06-22T03:09:43;13.73;;;5.80;;
31126;SDS011;17775;57.948;12.514;2023-06-22T03:12:10;12.20;;;5.60;;
31126;SDS011;17775;57.948;12.514;2023-06-22T03:14:37;23.23;;;6.53;;
31126;SDS011;17775;57.948;12.514;2023-06-22T03:17:04;15.43;;;5.85;;
31126;SDS011;17775;57.948;12.514;2023-06-22T03:19:31;14.98;;;6.00;;
31126;SDS011;17775;57.948;12.514;2023-06-22T03:21:59;13.68;;;6.28;;
31126;SDS011;17775;57.948;12.514;2023-06-22T03:24:25;13.73;;;5.95;;
31126;SDS011;17775;57.948;12.514;2023-06-22T03:26:55;14.77;;;5.70;;
31126;SDS011;17775;57.948;12.514;2023-06-22T03:29:21;18.90;;;5.75;;
31126;SDS011;17775;57.948;12.514;2023-06-22T03:31:48;14.52;;;5.47;;
31126;SDS011;17775;57.948;12.514;2023-06-22T03:34:14;11.60;;;5.63;;
31126;SDS011;17775;57.948;12.514;2023-06-22T03:36:42;15.63;;;5.40;;
31126;SDS011;17775;57.948;12.514;2023-06-22T03:39:11;15.13;;;5.90;;
31126;SDS011;17775;57.948;12.514;2023-06-22T03:41:38;16.33;;;5.57;;
31126;SDS011;17775;57.948;12.514;2023-06-22T03:44:05;19.95;;;6.32;;
31126;SDS011;17775;57.948;12.514;2023-06-22T03:46:31;14.90;;;5.97;;
31126;SDS011;17775;57.948;12.514;2023-06-22T03:48:58;10.98;;;5.60;;
31126;SDS011;17775;57.948;12.514;2023-06-22T03:51:24;10.00;;;5.35;;
31126;SDS011;17775;57.948;12.514;2023-06-22T03:53:53;12.98;;;6.55;;
31126;SDS011;17775;57.948;12.514;2023-06-22T03:56:19;15.10;;;5.95;;
31126;SDS011;17775;57.948;12.514;2023-06-22T03:58:46;11.95;;;5.43;;
31126;SDS011;17775;57.948;12.514;2023-06-22T04:01:13;18.92;;;6.40;;
31126;SDS011;17775;57.948;12.514;2023-06-22T04:03:40;15.10;;;6.03;;
31126;SDS011;17775;57.948;12.514;2023-06-22T04:06:07;14.80;;;6.63;;
31126;SDS011;17775;57.948;12.514;2023-06-22T04:08:34;18.27;;;5.85;;
31126;SDS011;17775;57.948;12.514;2023-06-22T04:11:00;16.63;;;5.85;;
31126;SDS011;17775;57.948;12.514;2023-06-22T04:13:27;20.60;;;7.13;;
31126;SDS011;17775;57.948;12.514;2023-06-22T04:15:53;16.50;;;6.00;;
31126;SDS011;17775;57.948;12.514;2023-06-22T04:18:20;14.80;;;5.57;;
31126;SDS011;17775;57.948;12.514;2023-06-22T04:20:46;16.20;;;6.00;;
31126;SDS011;17775;57.948;12.514;2023-06-22T04:23:13;16.52;;;5.40;;
31126;SDS011;17775;57.948;12.514;2023-06-22T04:25:39;12.43;;;5.90;;
31126;SDS011;17775;57.948;12.514;2023-06-22T04:28:06;15.45;;;5.70;;
31126;SDS011;17775;57.948;12.514;2023-06-22T04:30:40;16.73;;;5.95;;
31126;SDS011;17775;57.948;12.514;2023-06-22T04:33:13;17.63;;;6.15;;
31126;SDS011;17775;57.948;12.514;2023-06-22T04:35:40;22.08;;;6.68;;
31126;SDS011;17775;57.948;12.514;2023-06-22T04:38:11;13.82;;;6.05;;
31126;SDS011;17775;57.948;12.514;2023-06-22T04:40:39;13.80;;;5.65;;
31126;SDS011;17775;57.948;12.514;2023-06-22T04:43:06;17.10;;;6.40;;
31126;SDS011;17775;57.948;12.514;2023-06-22T04:45:33;17.02;;;5.70;;
31126;SDS011;17775;57.948;12.514;2023-06-22T04:47:59;13.98;;;5.75;;
31126;SDS011;17775;57.948;12.514;2023-06-22T04:50:26;14.63;;;5.60;;
31126;SDS011;17775;57.948;12.514;2023-06-22T04:52:53;11.70;;;5.32;;
31126;SDS011;17775;57.948;12.514;2023-06-22T04:55:19;14.07;;;6.00;;
31126;SDS011;17775;57.948;12.514;2023-06-22T04:57:47;13.80;;;5.90;;
31126;SDS011;17775;57.948;12.514;2023-06-22T05:02:43;15.57;;;5.93;;
31126;SDS011;17775;57.948;12.514;2023-06-22T05:05:11;16.27;;;5.55;;
31126;SDS011;17775;57.948;12.514;2023-06-22T05:07:41;13.80;;;5.50;;
31126;SDS011;17775;57.948;12.514;2023-06-22T05:10:10;16.15;;;5.55;;
31126;SDS011;17775;57.948;12.514;2023-06-22T05:12:41;14.15;;;6.65;;
31126;SDS011;17775;57.948;12.514;2023-06-22T05:15:08;14.20;;;5.43;;
31126;SDS011;17775;57.948;12.514;2023-06-22T05:17:36;13.05;;;5.68;;
31126;SDS011;17775;57.948;12.514;2023-06-22T05:20:02;14.43;;;5.28;;
31126;SDS011;17775;57.948;12.514;2023-06-22T05:22:32;11.52;;;5.50;;
31126;SDS011;17775;57.948;12.514;2023-06-22T05:24:59;12.13;;;5.47;;
31126;SDS011;17775;57.948;12.514;2023-06-22T05:27:25;11.70;;;5.30;;
31126;SDS011;17775;57.948;12.514;2023-06-22T05:29:52;10.88;;;5.35;;
31126;SDS011;17775;57.948;12.514;2023-06-22T05:32:18;11.20;;;5.22;;
31126;SDS011;17775;57.948;12.514;2023-06-22T05:34:45;13.27;;;5.55;;
31126;SDS011;17775;57.948;12.514;2023-06-22T05:37:11;19.85;;;5.72;;
31126;SDS011;17775;57.948;12.514;2023-06-22T05:39:39;15.07;;;5.93;;
31126;SDS011;17775;57.948;12.514;2023-06-22T05:42:05;11.55;;;5.38;;
31126;SDS011;17775;57.948;12.514;2023-06-22T05:44:36;9.57;;;6.00;;
31126;SDS011;17775;57.948;12.514;2023-06-22T05:49:33;14.40;;;5.53;;
31126;SDS011;17775;57.948;12.514;2023-06-22T05:51:59;15.02;;;5.95;;
31126;SDS011;17775;57.948;12.514;2023-06-22T05:54:29;15.85;;;5.50;;
31126;SDS011;17775;57.948;12.514;2023-06-22T05:56:56;14.95;;;5.20;;
31126;SDS011;17775;57.948;12.514;2023-06-22T05:59:22;15.48;;;5.65;;
31126;SDS011;17775;57.948;12.514;2023-06-22T06:01:49;11.95;;;5.18;;
31126;SDS011;17775;57.948;12.514;2023-06-22T06:04:17;10.50;;;4.95;;
31126;SDS011;17775;57.948;12.514;2023-06-22T06:06:44;12.80;;;5.22;;
31126;SDS011;17775;57.948;12.514;2023-06-22T06:09:10;14.32;;;4.55;;
31126;SDS011;17775;57.948;12.514;2023-06-22T06:11:37;11.00;;;4.93;;
31126;SDS011;17775;57.948;12.514;2023-06-22T06:14:04;13.27;;;5.20;;
31126;SDS011;17775;57.948;12.514;2023-06-22T06:16:31;10.57;;;5.25;;
31126;SDS011;17775;57.948;12.514;2023-06-22T06:18:58;12.55;;;5.00;;
31126;SDS011;17775;57.948;12.514;2023-06-22T06:21:24;21.00;;;5.38;;
31126;SDS011;17775;57.948;12.514;2023-06-22T06:23:56;14.20;;;5.53;;
31126;SDS011;17775;57.948;12.514;2023-06-22T06:26:23;10.63;;;4.50;;
31126;SDS011;17775;57.948;12.514;2023-06-22T06:28:54;10.07;;;4.75;;
31126;SDS011;17775;57.948;12.514;2023-06-22T06:31:21;10.30;;;4.93;;
31126;SDS011;17775;57.948;12.514;2023-06-22T06:33:47;11.63;;;4.72;;
31126;SDS011;17775;57.948;12.514;2023-06-22T06:36:14;13.38;;;5.07;;
31126;SDS011;17775;57.948;12.514;2023-06-22T06:38:41;9.07;;;4.35;;
31126;SDS011;17775;57.948;12.514;2023-06-22T06:41:08;10.00;;;5.15;;
31126;SDS011;17775;57.948;12.514;2023-06-22T06:43:34;10.15;;;4.20;;
31126;SDS011;17775;57.948;12.514;2023-06-22T06:46:01;9.18;;;4.60;;
31126;SDS011;17775;57.948;12.514;2023-06-22T06:48:29;10.57;;;4.75;;
31126;SDS011;17775;57.948;12.514;2023-06-22T06:50:56;9.77;;;4.32;;
31126;SDS011;17775;57.948;12.514;2023-06-22T06:53:22;10.88;;;4.85;;
31126;SDS011;17775;57.948;12.514;2023-06-22T06:55:52;7.72;;;4.50;;
31126;SDS011;17775;57.948;12.514;2023-06-22T06:58:18;8.43;;;4.57;;
31126;SDS011;17775;57.948;12.514;2023-06-22T07:00:45;11.82;;;4.68;;
31126;SDS011;17775;57.948;12.514;2023-06-22T07:03:12;12.50;;;5.15;;
31126;SDS011;17775;57.948;12.514;2023-06-22T07:05:38;14.25;;;4.38;;
31126;SDS011;17775;57.948;12.514;2023-06-22T07:08:05;13.05;;;4.47;;
31126;SDS011;17775;57.948;12.514;2023-06-22T07:10:31;13.07;;;4.25;;
31126;SDS011;17775;57.948;12.514;2023-06-22T07:12:58;12.20;;;5.13;;
31126;SDS011;17775;57.948;12.514;2023-06-22T07:15:25;12.35;;;4.97;;
31126;SDS011;17775;57.948;12.514;2023-06-22T07:17:51;12.05;;;4.60;;
31126;SDS011;17775;57.948;12.514;2023-06-22T07:20:18;13.65;;;4.68;;
31126;SDS011;17775;57.948;12.514;2023-06-22T07:22:45;9.60;;;4.60;;
31126;SDS011;17775;57.948;12.514;2023-06-22T07:25:12;6.03;;;4.20;;
31126;SDS011;17775;57.948;12.514;2023-06-22T07:28:01;11.30;;;4.35;;
31126;SDS011;17775;57.948;12.514;2023-06-22T07:30:29;12.10;;;4.43;;
31126;SDS011;17775;57.948;12.514;2023-06-22T07:32:56;15.45;;;4.80;;
31126;SDS011;17775;57.948;12.514;2023-06-22T07:35:22;10.43;;;4.20;;
31126;SDS011;17775;57.948;12.514;2023-06-22T07:37:49;12.18;;;4.35;;
31126;SDS011;17775;57.948;12.514;2023-06-22T07:40:15;10.10;;;4.45;;
31126;SDS011;17775;57.948;12.514;2023-06-22T07:42:42;13.07;;;4.57;;
31126;SDS011;17775;57.948;12.514;2023-06-22T07:45:09;11.02;;;5.00;;
31126;SDS011;17775;57.948;12.514;2023-06-22T07:47:35;8.95;;;3.78;;
31126;SDS011;17775;57.948;12.514;2023-06-22T07:50:03;8.13;;;4.25;;
31126;SDS011;17775;57.948;12.514;2023-06-22T07:52:29;13.02;;;5.10;;
31126;SDS011;17775;57.948;12.514;2023-06-22T07:54:56;9.30;;;4.60;;
31126;SDS011;17775;57.948;12.514;2023-06-22T07:57:23;12.48;;;4.95;;
31126;SDS011;17775;57.948;12.514;2023-06-22T07:59:51;8.63;;;4.15;;
31126;SDS011;17775;57.948;12.514;2023-06-22T08:02:18;11.18;;;4.88;;
31126;SDS011;17775;57.948;12.514;2023-06-22T08:04:44;14.43;;;4.65;;
31126;SDS011;17775;57.948;12.514;2023-06-22T08:07:11;13.30;;;5.43;;
31126;SDS011;17775;57.948;12.514;2023-06-22T08:09:38;12.82;;;4.15;;
31126;SDS011;17775;57.948;12.514;2023-06-22T08:12:05;10.27;;;4.10;;
31126;SDS011;17775;57.948;12.514;2023-06-22T08:14:31;11.25;;;4.25;;
31126;SDS011;17775;57.948;12.514;2023-06-22T08:16:58;11.80;;;4.68;;
31126;SDS011;17775;57.948;12.514;2023-06-22T08:19:24;10.00;;;4.63;;
31126;SDS011;17775;57.948;12.514;2023-06-22T08:21:51;8.35;;;4.38;;
31126;SDS011;17775;57.948;12.514;2023-06-22T08:24:17;11.88;;;4.25;;
31126;SDS011;17775;57.948;12.514;2023-06-22T08:26:44;8.48;;;4.50;;
31126;SDS011;17775;57.948;12.514;2023-06-22T08:29:11;11.68;;;5.13;;
31126;SDS011;17775;57.948;12.514;2023-06-22T08:31:37;11.52;;;4.68;;
31126;SDS011;17775;57.948;12.514;2023-06-22T08:34:04;9.80;;;4.05;;
31126;SDS011;17775;57.948;12.514;2023-06-22T08:36:30;9.65;;;4.25;;
31126;SDS011;17775;57.948;12.514;2023-06-22T08:38:59;9.48;;;4.32;;
31126;SDS011;17775;57.948;12.514;2023-06-22T08:41:29;9.10;;;4.50;;
31126;SDS011;17775;57.948;12.514;2023-06-22T08:43:55;9.80;;;4.10;;
31126;SDS011;17775;57.948;12.514;2023-06-22T08:46:22;7.72;;;4.07;;
31126;SDS011;17775;57.948;12.514;2023-06-22T08:48:56;10.35;;;4.65;;
31126;SDS011;17775;57.948;12.514;2023-06-22T08:51:26;7.78;;;4.10;;
31126;SDS011;17775;57.948;12.514;2023-06-22T08:53:52;12.23;;;4.63;;
31126;SDS011;17775;57.948;12.514;2023-06-22T08:56:19;8.82;;;4.25;;
31126;SDS011;17775;57.948;12.514;2023-06-22T08:58:45;10.15;;;4.00;;
31126;SDS011;17775;57.948;12.514;2023-06-22T09:01:12;8.43;;;4.13;;
31126;SDS011;17775;57.948;12.514;2023-06-22T09:03:38;7.93;;;3.85;;
31126;SDS011;17775;57.948;12.514;2023-06-22T09:06:05;8.38;;;4.07;;
31126;SDS011;17775;57.948;12.514;2023-06-22T09:08:32;6.65;;;4.63;;
31126;SDS011;17775;57.948;12.514;2023-06-22T09:10:58;9.35;;;3.90;;
31126;SDS011;17775;57.948;12.514;2023-06-22T09:13:25;8.90;;;3.97;;
31126;SDS011;17775;57.948;12.514;2023-06-22T09:15:51;10.80;;;4.05;;
31126;SDS011;17775;57.948;12.514;2023-06-22T09:18:18;8.57;;;4.05;;
31126;SDS011;17775;57.948;12.514;2023-06-22T09:20:45;7.50;;;3.85;;
31126;SDS011;17775;57.948;12.514;2023-06-22T09:23:11;12.18;;;4.90;;
31126;SDS011;17775;57.948;12.514;2023-06-22T09:25:38;8.13;;;4.00;;
31126;SDS011;17775;57.948;12.514;2023-06-22T09:28:04;10.75;;;4.32;;
31126;SDS011;17775;57.948;12.514;2023-06-22T09:30:32;10.45;;;3.70;;
31126;SDS011;17775;57.948;12.514;2023-06-22T09:32:58;6.45;;;3.88;;
31126;SDS011;17775;57.948;12.514;2023-06-22T09:35:26;7.22;;;3.58;;
31126;SDS011;17775;57.948;12.514;2023-06-22T09:37:52;8.95;;;3.53;;
31126;SDS011;17775;57.948;12.514;2023-06-22T09:40:21;10.07;;;3.60;;
31126;SDS011;17775;57.948;12.514;2023-06-22T09:42:48;8.73;;;3.47;;
31126;SDS011;17775;57.948;12.514;2023-06-22T09:45:14;8.98;;;3.60;;
31126;SDS011;17775;57.948;12.514;2023-06-22T09:47:41;8.02;;;3.72;;
31126;SDS011;17775;57.948;12.514;2023-06-22T09:50:09;5.97;;;3.60;;
31126;SDS011;17775;57.948;12.514;2023-06-22T09:52:36;6.05;;;3.75;;
31126;SDS011;17775;57.948;12.514;2023-06-22T09:55:05;10.70;;;3.55;;
31126;SDS011;17775;57.948;12.514;2023-06-22T09:57:32;7.70;;;3.70;;
31126;SDS011;17775;57.948;12.514;2023-06-22T09:59:59;8.60;;;3.58;;
31126;SDS011;17775;57.948;12.514;2023-06-22T10:02:25;7.47;;;4.07;;
31126;SDS011;17775;57.948;12.514;2023-06-22T10:04:52;7.85;;;3.45;;
31126;SDS011;17775;57.948;12.514;2023-06-22T10:07:22;9.27;;;3.73;;
31126;SDS011;17775;57.948;12.514;2023-06-22T10:09:48;6.68;;;3.60;;
31126;SDS011;17775;57.948;12.514;2023-06-22T10:12:15;5.88;;;3.00;;
31126;SDS011;17775;57.948;12.514;2023-06-22T10:14:41;8.10;;;3.70;;
31126;SDS011;17775;57.948;12.514;2023-06-22T10:17:08;7.47;;;3.42;;
31126;SDS011;17775;57.948;12.514;2023-06-22T10:19:35;9.63;;;3.42;;
31126;SDS011;17775;57.948;12.514;2023-06-22T10:22:06;6.40;;;3.20;;
31126;SDS011;17775;57.948;12.514;2023-06-22T10:24:33;9.82;;;4.20;;
31126;SDS011;17775;57.948;12.514;2023-06-22T10:26:59;8.57;;;3.70;;
31126;SDS011;17775;57.948;12.514;2023-06-22T10:29:26;7.57;;;3.47;;
31126;SDS011;17775;57.948;12.514;2023-06-22T10:31:52;5.53;;;3.30;;
31126;SDS011;17775;57.948;12.514;2023-06-22T10:34:19;6.43;;;2.90;;
31126;SDS011;17775;57.948;12.514;2023-06-22T10:36:45;13.45;;;4.07;;
31126;SDS011;17775;57.948;12.514;2023-06-22T10:39:17;5.25;;;2.60;;
31126;SDS011;17775;57.948;12.514;2023-06-22T10:41:44;6.97;;;3.38;;
31126;SDS011;17775;57.948;12.514;2023-06-22T10:44:11;12.18;;;3.30;;
31126;SDS011;17775;57.948;12.514;2023-06-22T10:46:38;5.90;;;3.13;;
31126;SDS011;17775;57.948;12.514;2023-06-22T10:49:05;10.05;;;3.38;;
31126;SDS011;17775;57.948;12.514;2023-06-22T10:51:31;8.43;;;3.17;;
31126;SDS011;17775;57.948;12.514;2023-06-22T10:53:58;6.07;;;3.10;;
31126;SDS011;17775;57.948;12.514;2023-06-22T10:56:25;5.38;;;2.72;;
31126;SDS011;17775;57.948;12.514;2023-06-22T10:58:53;7.53;;;3.20;;
31126;SDS011;17775;57.948;12.514;2023-06-22T11:01:20;5.63;;;2.50;;
31126;SDS011;17775;57.948;12.514;2023-06-22T11:04:01;5.07;;;2.53;;
31126;SDS011;17775;57.948;12.514;2023-06-22T11:06:31;4.35;;;3.08;;
31126;SDS011;17775;57.948;12.514;2023-06-22T11:08:57;17.02;;;3.80;;
31126;SDS011;17775;57.948;12.514;2023-06-22T11:11:37;6.53;;;3.10;;
31126;SDS011;17775;57.948;12.514;2023-06-22T11:14:04;6.97;;;3.78;;
31126;SDS011;17775;57.948;12.514;2023-06-22T11:16:33;5.68;;;2.80;;
31126;SDS011;17775;57.948;12.514;2023-06-22T11:19:01;5.65;;;3.20;;
31126;SDS011;17775;57.948;12.514;2023-06-22T11:21:27;5.53;;;2.75;;
31126;SDS011;17775;57.948;12.514;2023-06-22T11:23:53;6.00;;;3.17;;
31126;SDS011;17775;57.948;12.514;2023-06-22T11:26:20;5.18;;;2.75;;
31126;SDS011;17775;57.948;12.514;2023-06-22T11:28:47;6.45;;;3.35;;
31126;SDS011;17775;57.948;12.514;2023-06-22T11:31:14;6.68;;;3.17;;
31126;SDS011;17775;57.948;12.514;2023-06-22T11:33:52;5.28;;;3.25;;
31126;SDS011;17775;57.948;12.514;2023-06-22T11:36:18;7.80;;;3.22;;
31126;SDS011;17775;57.948;12.514;2023-06-22T11:38:45;6.80;;;2.67;;
31126;SDS011;17775;57.948;12.514;2023-06-22T11:41:11;5.05;;;2.88;;
31126;SDS011;17775;57.948;12.514;2023-06-22T11:43:38;6.53;;;3.20;;
31126;SDS011;17775;57.948;12.514;2023-06-22T11:46:04;4.38;;;2.80;;
31126;SDS011;17775;57.948;12.514;2023-06-22T11:48:31;3.90;;;2.47;;
31126;SDS011;17775;57.948;12.514;2023-06-22T11:50:58;5.15;;;2.60;;
31126;SDS011;17775;57.948;12.514;2023-06-22T11:53:26;8.10;;;3.03;;
31126;SDS011;17775;57.948;12.514;2023-06-22T11:55:53;4.47;;;3.15;;
31126;SDS011;17775;57.948;12.514;2023-06-22T11:58:20;4.03;;;2.60;;
31126;SDS011;17775;57.948;12.514;2023-06-22T12:00:47;7.05;;;2.97;;
31126;SDS011;17775;57.948;12.514;2023-06-22T12:03:17;7.78;;;3.58;;
31126;SDS011;17775;57.948;12.514;2023-06-22T12:05:44;7.22;;;3.22;;
31126;SDS011;17775;57.948;12.514;2023-06-22T12:08:11;5.82;;;2.83;;
31126;SDS011;17775;57.948;12.514;2023-06-22T12:10:38;7.43;;;3.30;;
31126;SDS011;17775;57.948;12.514;2023-06-22T12:13:04;5.07;;;2.78;;
31126;SDS011;17775;57.948;12.514;2023-06-22T12:15:31;4.47;;;2.95;;
31126;SDS011;17775;57.948;12.514;2023-06-22T12:17:57;6.45;;;2.95;;
31126;SDS011;17775;57.948;12.514;2023-06-22T12:20:24;4.22;;;3.00;;
31126;SDS011;17775;57.948;12.514;2023-06-22T12:22:51;4.38;;;2.92;;
31126;SDS011;17775;57.948;12.514;2023-06-22T12:25:22;8.38;;;2.80;;
31126;SDS011;17775;57.948;12.514;2023-06-22T12:27:48;4.80;;;2.50;;
31126;SDS011;17775;57.948;12.514;2023-06-22T12:30:15;4.05;;;2.70;;
31126;SDS011;17775;57.948;12.514;2023-06-22T12:32:42;6.03;;;2.72;;
31126;SDS011;17775;57.948;12.514;2023-06-22T12:35:08;4.45;;;2.72;;
31126;SDS011;17775;57.948;12.514;2023-06-22T12:37:40;5.78;;;3.03;;
31126;SDS011;17775;57.948;12.514;2023-06-22T12:40:07;4.47;;;2.67;;
31126;SDS011;17775;57.948;12.514;2023-06-22T12:42:34;5.88;;;3.10;;
31126;SDS011;17775;57.948;12.514;2023-06-22T12:45:01;7.43;;;3.28;;
31126;SDS011;17775;57.948;12.514;2023-06-22T12:47:27;4.63;;;2.90;;
31126;SDS011;17775;57.948;12.514;2023-06-22T12:49:54;5.75;;;3.10;;
31126;SDS011;17775;57.948;12.514;2023-06-22T12:52:20;4.85;;;3.13;;
31126;SDS011;17775;57.948;12.514;2023-06-22T12:54:47;6.28;;;3.15;;
31126;SDS011;17775;57.948;12.514;2023-06-22T12:57:21;3.22;;;2.80;;
31126;SDS011;17775;57.948;12.514;2023-06-22T12:59:47;4.32;;;3.10;;
31126;SDS011;17775;57.948;12.514;2023-06-22T13:02:15;5.80;;;3.20;;
31126;SDS011;17775;57.948;12.514;2023-06-22T13:04:42;4.82;;;3.05;;
31126;SDS011;17775;57.948;12.514;2023-06-22T13:07:09;6.10;;;3.17;;
31126;SDS011;17775;57.948;12.514;2023-06-22T13:09:48;6.50;;;3.35;;
31126;SDS011;17775;57.948;12.514;2023-06-22T13:12:19;3.78;;;2.83;;
31126;SDS011;17775;57.948;12.514;2023-06-22T13:14:46;9.65;;;3.40;;
31126;SDS011;17775;57.948;12.514;2023-06-22T13:17:13;6.70;;;3.20;;
31126;SDS011;17775;57.948;12.514;2023-06-22T13:19:40;4.22;;;3.25;;
31126;SDS011;17775;57.948;12.514;2023-06-22T13:25:12;4.90;;;3.10;;
31126;SDS011;17775;57.948;12.514;2023-06-22T13:27:42;4.65;;;3.00;;
31126;SDS011;17775;57.948;12.514;2023-06-22T13:30:08;4.65;;;2.85;;
31126;SDS011;17775;57.948;12.514;2023-06-22T13:32:39;8.43;;;3.67;;
31126;SDS011;17775;57.948;12.514;2023-06-22T13:35:09;5.03;;;3.40;;
31126;SDS011;17775;57.948;12.514;2023-06-22T13:37:36;5.57;;;3.35;;
31126;SDS011;17775;57.948;12.514;2023-06-22T13:40:03;3.88;;;3.45;;
31126;SDS011;17775;57.948;12.514;2023-06-22T13:42:31;7.10;;;3.03;;
31126;SDS011;17775;57.948;12.514;2023-06-22T13:44:58;4.50;;;2.67;;
31126;SDS011;17775;57.948;12.514;2023-06-22T13:47:24;6.43;;;3.10;;
31126;SDS011;17775;57.948;12.514;2023-06-22T13:49:53;5.68;;;2.90;;
31126;SDS011;17775;57.948;12.514;2023-06-22T13:52:20;5.22;;;2.90;;
31126;SDS011;17775;57.948;12.514;2023-06-22T13:54:47;5.25;;;3.25;;
31126;SDS011;17775;57.948;12.514;2023-06-22T13:57:13;6.10;;;3.00;;
31126;SDS011;17775;57.948;12.514;2023-06-22T13:59:40;6.70;;;3.20;;
31126;SDS011;17775;57.948;12.514;2023-06-22T14:02:06;8.63;;;2.90;;
31126;SDS011;17775;57.948;12.514;2023-06-22T14:04:33;6.53;;;3.35;;
31126;SDS011;17775;57.948;12.514;2023-06-22T14:06:59;4.35;;;2.67;;
31126;SDS011;17775;57.948;12.514;2023-06-22T14:09:26;5.30;;;2.63;;
31126;SDS011;17775;57.948;12.514;2023-06-22T14:11:54;5.32;;;2.53;;
31126;SDS011;17775;57.948;12.514;2023-06-22T14:14:20;4.13;;;2.60;;
31126;SDS011;17775;57.948;12.514;2023-06-22T14:16:47;6.13;;;3.30;;
31126;SDS011;17775;57.948;12.514;2023-06-22T14:19:19;4.10;;;2.70;;
31126;SDS011;17775;57.948;12.514;2023-06-22T14:21:45;5.72;;;3.20;;
31126;SDS011;17775;57.948;12.514;2023-06-22T14:24:12;6.13;;;2.97;;
31126;SDS011;17775;57.948;12.514;2023-06-22T14:26:38;5.28;;;2.95;;
31126;SDS011;17775;57.948;12.514;2023-06-22T14:29:05;3.80;;;2.80;;
31126;SDS011;17775;57.948;12.514;2023-06-22T14:31:31;3.55;;;2.83;;
31126;SDS011;17775;57.948;12.514;2023-06-22T14:33:58;5.05;;;2.70;;
31126;SDS011;17775;57.948;12.514;2023-06-22T14:36:25;5.53;;;3.10;;
31126;SDS011;17775;57.948;12.514;2023-06-22T14:38:51;5.80;;;3.00;;
31126;SDS011;17775;57.948;12.514;2023-06-22T14:41:21;6.82;;;3.10;;
31126;SDS011;17775;57.948;12.514;2023-06-22T14:43:49;3.90;;;3.20;;